Witherspoon, Arkansas
Current Conditions -  °F | °C
As of 10:56 PM on Sunday 21 Dec 2014 (Local Time) from KADF Reporting Station
Haze Haze  
Wind Chill: 39°   Ceiling: Unl
Heat Index: 39°   Visibility: 6mi
Dew Point: 39°   Wind: 3mph
Humidity: 100%   Direction: 20°NNE
Pressure: 29.86"   Gusts: NA
Location:  34.0941°N, 93.0475°W
Report Text: KADF 220456Z AUTO 02003KT 6SM BR CLR 04/04 A2986 RMK AO2 T00380038 SLP126
Loading
Personal Weather Stations






























Interactive Weather Map New forecast layout! Learn more

10-Day Weather Forecast

Advertisements
Track Severe Weather on mobile